Time;durP1;ratioP1;P1;durP2;ratioP2;P2;SDS_P1;SDS_P2;PMS_P1;PMS_P2;Temp;Humidity;BMP_temperature;BMP_pressure;BME280_temperature;BME280_humidity;BME280_pressure;Samples;Min_cycle;Max_cycle;Signal;HPM_P1;HPM_P2
2022/04/29 00:00:30;;;;;;;25.65;18.13;;;10.30;99.90;;;;;;4992942;28;20049;-73
2022/04/29 00:02:56;;;;;;;30.85;20.40;;;10.30;99.90;;;;;;4994948;28;20076;-72
2022/04/29 00:05:22;;;;;;;27.17;17.63;;;10.30;99.90;;;;;;4994613;28;20435;-73
2022/04/29 00:07:47;;;;;;;28.42;19.00;;;10.30;99.90;;;;;;4994622;28;20026;-71
2022/04/29 00:10:15;;;;;;;29.80;20.33;;;10.30;99.90;;;;;;4994664;28;20026;-73
2022/04/29 00:12:43;;;;;;;31.10;21.02;;;10.30;99.90;;;;;;4994421;28;20018;-74
2022/04/29 00:15:11;;;;;;;28.30;18.92;;;10.20;99.90;;;;;;4994270;28;20497;-73
2022/04/29 00:17:38;;;;;;;32.58;20.85;;;10.20;99.90;;;;;;4995140;28;20487;-70
2022/04/29 00:20:05;;;;;;;26.50;18.23;;;10.20;99.90;;;;;;4994161;28;20113;-74
2022/04/29 00:22:31;;;;;;;29.70;20.10;;;10.20;99.90;;;;;;4994126;28;20018;-72
2022/04/29 00:25:00;;;;;;;25.92;17.05;;;10.10;99.90;;;;;;4994196;28;20077;-72
2022/04/29 00:27:34;;;;;;;26.48;17.45;;;10.10;99.90;;;;;;4991938;28;20026;-73
2022/04/29 00:30:01;;;;;;;23.98;16.15;;;10.10;99.90;;;;;;4993486;28;20030;-72
2022/04/29 00:32:27;;;;;;;26.23;17.52;;;10.00;99.90;;;;;;4993647;28;20028;-74
2022/04/29 00:34:53;;;;;;;24.73;16.45;;;10.00;99.90;;;;;;5009490;28;20046;-70
2022/04/29 00:37:19;;;;;;;22.85;16.63;;;10.00;99.90;;;;;;4994141;28;20481;-71
2022/04/29 00:39:45;;;;;;;30.52;18.08;;;10.00;99.90;;;;;;4989352;28;20026;-69
2022/04/29 00:42:12;;;;;;;33.00;20.50;;;9.90;99.90;;;;;;4993802;28;20014;-72
2022/04/29 00:44:45;;;;;;;27.27;18.58;;;9.90;99.90;;;;;;5006358;28;20495;-73
2022/04/29 00:47:14;;;;;;;28.95;20.55;;;9.90;99.90;;;;;;4989841;28;20050;-73
2022/04/29 00:49:40;;;;;;;31.67;21.05;;;9.80;99.90;;;;;;4989654;28;20030;-71
2022/04/29 00:52:09;;;;;;;28.65;20.38;;;9.80;99.90;;;;;;4974669;28;20477;-74
2022/04/29 00:54:37;;;;;;;31.08;21.98;;;9.90;99.90;;;;;;4989766;28;20046;-72
2022/04/29 00:57:09;;;;;;;30.75;22.10;;;9.90;99.90;;;;;;4974035;28;20065;-72
2022/04/29 00:59:53;;;;;;;29.38;19.33;;;9.90;99.90;;;;;;4988852;28;20034;-73
2022/04/29 01:02:20;;;;;;;32.45;21.92;;;9.90;99.90;;;;;;4989665;28;20107;-72
2022/04/29 01:05:07;;;;;;;30.35;19.23;;;9.90;99.90;;;;;;4974125;28;20027;-74
2022/04/29 01:07:36;;;;;;;25.58;16.50;;;9.90;99.90;;;;;;4976097;28;20027;-70
2022/04/29 01:10:13;;;;;;;28.65;17.75;;;9.80;99.90;;;;;;4979058;28;20015;-74
2022/04/29 01:13:12;;;;;;;25.35;17.05;;;9.70;99.90;;;;;;4978367;28;20442;-74
2022/04/29 01:15:39;;;;;;;22.00;14.73;;;9.70;99.90;;;;;;4972943;28;20022;-73
2022/04/29 01:18:10;;;;;;;25.55;17.35;;;9.60;99.90;;;;;;4988449;28;20049;-73
2022/04/29 01:20:44;;;;;;;26.15;16.10;;;9.60;99.90;;;;;;4969089;28;20030;-73
2022/04/29 01:23:17;;;;;;;23.58;15.68;;;9.60;99.90;;;;;;4988039;28;20455;-71
2022/04/29 01:25:58;;;;;;;27.83;18.63;;;9.50;99.90;;;;;;4975943;28;20480;-72
2022/04/29 01:28:26;;;;;;;24.88;16.70;;;9.50;99.90;;;;;;4979067;28;20062;-74
2022/04/29 01:30:57;;;;;;;24.25;16.33;;;9.50;99.90;;;;;;4984374;28;20618;-71
2022/04/29 01:33:25;;;;;;;24.40;17.45;;;9.40;99.90;;;;;;4972556;28;20039;-72
2022/04/29 01:35:50;;;;;;;27.42;17.88;;;9.40;99.90;;;;;;4988030;28;20109;-73
2022/04/29 01:38:18;;;;;;;30.70;20.40;;;9.30;99.90;;;;;;4987895;28;20042;-74
2022/04/29 01:40:48;;;;;;;33.10;21.65;;;9.30;99.90;;;;;;4967712;28;20493;-72
2022/04/29 01:43:17;;;;;;;29.83;20.92;;;9.20;99.90;;;;;;4972520;28;20069;-74
2022/04/29 01:45:44;;;;;;;33.38;20.90;;;9.20;99.90;;;;;;4999673;28;20422;-73
2022/04/29 01:48:30;;;;;;;30.63;19.25;;;9.20;99.90;;;;;;5003407;28;20077;-73
2022/04/29 01:51:34;;;;;;;29.10;19.10;;;9.20;99.90;;;;;;5010283;28;20030;-73
2022/04/29 01:54:00;;;;;;;29.02;20.13;;;9.30;99.90;;;;;;4990764;28;20440;-72
2022/04/29 01:56:32;;;;;;;31.90;19.05;;;9.30;99.90;;;;;;5006911;28;20361;-73
2022/04/29 01:59:03;;;;;;;27.10;19.52;;;9.40;99.90;;;;;;5006584;28;20036;-74
2022/04/29 02:01:33;;;;;;;24.33;16.80;;;9.40;99.90;;;;;;5007310;28;20018;-73
2022/04/29 02:04:01;;;;;;;25.17;18.08;;;9.40;99.90;;;;;;4976274;28;20030;-74
2022/04/29 02:06:28;;;;;;;26.88;17.10;;;9.40;99.90;;;;;;4992939;28;20023;-74
2022/04/29 02:08:55;;;;;;;26.17;18.00;;;9.40;99.90;;;;;;4975611;28;20037;-74
2022/04/29 02:11:21;;;;;;;32.45;19.23;;;9.40;99.90;;;;;;4975456;28;20029;-74
2022/04/29 02:14:03;;;;;;;30.73;20.60;;;9.40;99.90;;;;;;4991290;28;20311;-73
2022/04/29 02:16:46;;;;;;;28.98;19.88;;;9.30;99.90;;;;;;4991540;28;20465;-73
2022/04/29 02:19:12;;;;;;;29.20;19.80;;;9.30;99.90;;;;;;4993089;28;20089;-73
2022/04/29 02:21:38;;;;;;;32.33;19.77;;;9.30;99.90;;;;;;4991288;28;20568;-72
2022/04/29 02:24:16;;;;;;;27.60;19.10;;;9.40;99.90;;;;;;4950637;28;20039;-73
2022/04/29 02:26:45;;;;;;;28.30;20.45;;;9.30;99.90;;;;;;4954145;28;20023;-74
2022/04/29 02:29:11;;;;;;;28.02;18.92;;;9.30;99.90;;;;;;4954025;28;20073;-73
2022/04/29 02:31:36;;;;;;;25.95;17.45;;;9.20;99.90;;;;;;4970590;28;20404;-74
2022/04/29 02:34:05;;;;;;;24.45;18.63;;;9.30;99.90;;;;;;4970268;28;20601;-74
2022/04/29 02:36:36;;;;;;;26.00;18.23;;;9.30;99.90;;;;;;4954205;28;20623;-74
2022/04/29 02:39:03;;;;;;;27.50;18.40;;;9.30;99.90;;;;;;4970303;28;20042;-73
2022/04/29 02:41:29;;;;;;;26.80;18.88;;;9.30;99.90;;;;;;4970497;28;20033;-74
2022/04/29 02:43:55;;;;;;;26.27;18.27;;;9.20;99.90;;;;;;4954463;28;20078;-73
2022/04/29 02:46:21;;;;;;;26.33;18.63;;;9.20;99.90;;;;;;4953276;28;20073;-75
2022/04/29 02:48:57;;;;;;;30.95;17.45;;;9.20;99.90;;;;;;4951361;28;20051;-74
2022/04/29 02:51:26;;;;;;;29.10;18.55;;;9.20;99.90;;;;;;4951369;29;20062;-74
2022/04/29 02:53:52;;;;;;;29.38;18.83;;;9.20;99.90;;;;;;4934777;28;20070;-73
2022/04/29 02:56:18;;;;;;;28.58;19.33;;;9.20;99.90;;;;;;4971485;28;20542;-72
2022/04/29 02:58:57;;;;;;;28.40;20.42;;;9.10;99.90;;;;;;4972349;28;20362;-71
2022/04/29 03:01:24;;;;;;;28.67;19.38;;;9.00;99.90;;;;;;4975112;28;20288;-73
2022/04/29 03:03:50;;;;;;;30.60;21.05;;;9.00;99.90;;;;;;4990960;28;20034;-73
2022/04/29 03:06:16;;;;;;;28.23;19.35;;;9.00;99.90;;;;;;4992160;28;20376;-73
2022/04/29 03:08:43;;;;;;;30.05;20.40;;;9.10;99.90;;;;;;4991000;28;20037;-74
2022/04/29 03:11:19;;;;;;;28.85;20.00;;;9.00;99.90;;;;;;4990348;28;20464;-75
2022/04/29 03:13:45;;;;;;;28.50;20.17;;;9.00;99.90;;;;;;4989754;28;20404;-74
2022/04/29 03:16:14;;;;;;;30.83;20.73;;;9.00;99.90;;;;;;4990675;28;20034;-75
2022/04/29 03:18:42;;;;;;;35.88;21.55;;;9.00;99.90;;;;;;4991125;28;20408;-74
2022/04/29 03:21:08;;;;;;;29.35;21.92;;;9.00;99.90;;;;;;4990266;28;20117;-75
2022/04/29 03:23:37;;;;;;;30.20;21.30;;;9.00;99.90;;;;;;4990392;28;20081;-75
2022/04/29 03:26:06;;;;;;;33.97;21.98;;;9.00;99.90;;;;;;4989641;28;20121;-75
2022/04/29 03:28:33;;;;;;;32.50;22.75;;;9.00;99.90;;;;;;4990102;28;20085;-75
2022/04/29 03:31:00;;;;;;;31.30;22.48;;;9.00;99.90;;;;;;4991529;28;20443;-73
2022/04/29 03:33:37;;;;;;;30.17;22.48;;;9.00;99.90;;;;;;4990213;28;20042;-73
2022/04/29 03:36:04;;;;;;;32.08;21.83;;;9.00;99.90;;;;;;4993116;28;20125;-74
2022/04/29 03:38:37;;;;;;;32.42;23.02;;;9.00;99.90;;;;;;4993931;28;20031;-74
2022/04/29 03:41:04;;;;;;;34.33;24.85;;;9.10;99.90;;;;;;4994426;28;20109;-74
2022/04/29 03:43:31;;;;;;;37.05;23.23;;;9.00;99.90;;;;;;4994165;28;20120;-74
2022/04/29 03:45:57;;;;;;;31.15;23.65;;;9.10;99.90;;;;;;5009667;28;20116;-74
2022/04/29 03:51:56;;;;;;;29.20;20.98;;;9.40;99.90;;;;;;4999015;28;20403;-75
2022/04/29 03:54:22;;;;;;;29.67;20.63;;;9.60;99.90;;;;;;5013386;28;20041;-75
2022/04/29 03:57:01;;;;;;;27.23;20.15;;;10.00;99.90;;;;;;5013645;28;20018;-74
2022/04/29 03:59:49;;;;;;;30.80;20.08;;;10.40;99.90;;;;;;4996577;28;20052;-75
2022/04/29 04:02:20;;;;;;;31.75;19.35;;;10.90;99.90;;;;;;4997003;28;20064;-75
2022/04/29 04:04:47;;;;;;;23.60;16.60;;;11.20;99.90;;;;;;4996936;28;20034;-74
2022/04/29 04:07:14;;;;;;;26.70;18.20;;;11.50;99.90;;;;;;4996242;28;20431;-75
2022/04/29 04:10:07;;;;;;;25.98;17.67;;;11.70;99.90;;;;;;4994752;28;20061;-72
2022/04/29 04:12:52;;;;;;;22.77;16.42;;;12.10;99.90;;;;;;4996664;28;20057;-72
2022/04/29 04:15:37;;;;;;;24.15;15.98;;;12.60;99.90;;;;;;4994969;28;20045;-75
2022/04/29 04:18:06;;;;;;;24.10;15.98;;;12.90;99.90;;;;;;4997701;28;20053;-75
2022/04/29 04:20:32;;;;;;;23.83;15.82;;;13.00;99.90;;;;;;4996607;28;20534;-76
2022/04/29 04:23:08;;;;;;;22.30;14.75;;;13.70;99.90;;;;;;4996429;28;20037;-76
2022/04/29 04:25:37;;;;;;;21.92;15.10;;;14.10;99.90;;;;;;4996688;28;20038;-75
2022/04/29 04:28:04;;;;;;;22.55;15.10;;;14.30;99.90;;;;;;4996081;28;20377;-74
2022/04/29 04:30:47;;;;;;;21.08;14.40;;;15.00;99.90;;;;;;4996322;28;20541;-74
2022/04/29 04:33:16;;;;;;;24.85;15.23;;;15.80;99.90;;;;;;4996356;28;20038;-73
2022/04/29 04:35:43;;;;;;;26.20;15.93;;;16.10;99.90;;;;;;4996245;28;20499;-71
2022/04/29 04:38:09;;;;;;;21.98;15.65;;;16.20;99.90;;;;;;4998350;28;20057;-76
2022/04/29 04:40:50;;;;;;;23.75;15.50;;;16.70;99.90;;;;;;5007427;28;20058;-77
2022/04/29 04:43:17;;;;;;;20.10;15.05;;;16.70;99.90;;;;;;5015263;28;20030;-76
2022/04/29 04:45:44;;;;;;;28.42;15.60;;;16.60;99.90;;;;;;4995872;28;20061;-77
2022/04/29 04:48:28;;;;;;;25.77;16.02;;;17.30;99.90;;;;;;5014135;28;20040;-76
2022/04/29 04:51:12;;;;;;;24.60;16.38;;;17.20;99.90;;;;;;5013915;28;20398;-76
2022/04/29 04:53:44;;;;;;;27.15;19.80;;;17.80;99.90;;;;;;4995957;28;20042;-75
2022/04/29 04:56:11;;;;;;;24.80;18.13;;;18.20;99.90;;;;;;4996004;28;20075;-77
2022/04/29 04:58:37;;;;;;;24.08;17.17;;;17.80;99.90;;;;;;4995491;28;20026;-77
2022/04/29 05:01:03;;;;;;;21.60;14.93;;;17.90;99.90;;;;;;4996099;28;20065;-77
2022/04/29 05:03:43;;;;;;;24.38;16.20;;;17.70;99.90;;;;;;5013408;28;20034;-76
2022/04/29 05:06:47;;;;;;;22.40;16.08;;;16.40;99.90;;;;;;5012841;28;20152;-74
2022/04/29 05:09:14;;;;;;;24.48;16.65;;;15.40;99.90;;;;;;4996258;28;20038;-75
2022/04/29 05:11:40;;;;;;;23.90;15.38;;;15.30;99.90;;;;;;5014042;28;20028;-75
2022/04/29 05:14:11;;;;;;;21.75;15.43;;;15.10;99.90;;;;;;4996057;28;20070;-74
2022/04/29 05:16:38;;;;;;;22.20;14.50;;;15.20;99.90;;;;;;5013628;28;20052;-75
2022/04/29 05:19:27;;;;;;;21.70;13.50;;;14.90;99.90;;;;;;5011179;28;20076;-72
2022/04/29 05:21:53;;;;;;;20.98;13.70;;;14.70;99.90;;;;;;4996179;28;20420;-75
2022/04/29 05:24:19;;;;;;;21.30;14.43;;;14.60;99.90;;;;;;5012155;28;20065;-74
2022/04/29 05:27:04;;;;;;;20.10;14.00;;;14.50;99.90;;;;;;5014023;28;20048;-75
2022/04/29 05:29:49;;;;;;;19.10;13.15;;;14.70;99.90;;;;;;5013392;28;20045;-74
2022/04/29 05:32:34;;;;;;;20.33;12.80;;;14.90;99.90;;;;;;5013332;28;20049;-76
2022/04/29 05:35:18;;;;;;;21.90;14.05;;;14.70;99.90;;;;;;5012322;28;20144;-75
2022/04/29 05:38:03;;;;;;;21.05;14.23;;;14.80;99.90;;;;;;5013417;28;20399;-75
2022/04/29 05:43:14;;;;;;;20.45;13.77;;;14.60;99.90;;;;;;5011985;28;20648;-75
2022/04/29 05:45:40;;;;;;;19.95;13.10;;;14.50;99.90;;;;;;5013182;28;20073;-75
2022/04/29 05:48:06;;;;;;;23.88;15.63;;;14.60;99.90;;;;;;5011829;28;20614;-75
2022/04/29 05:50:33;;;;;;;23.15;14.98;;;14.90;99.90;;;;;;5011639;28;20021;-68
2022/04/29 05:53:01;;;;;;;22.77;15.68;;;15.10;99.90;;;;;;5011299;28;20026;-75
2022/04/29 05:55:27;;;;;;;27.35;15.80;;;14.90;99.90;;;;;;5011400;28;20558;-71
2022/04/29 05:57:57;;;;;;;21.95;15.05;;;14.90;99.90;;;;;;5010475;28;20225;-75
2022/04/29 06:00:23;;;;;;;21.13;13.98;;;15.00;99.90;;;;;;5011694;28;20037;-76
2022/04/29 06:03:07;;;;;;;22.95;14.00;;;15.20;99.90;;;;;;5011623;28;20033;-75
2022/04/29 06:05:33;;;;;;;19.70;12.95;;;15.20;99.90;;;;;;5012138;28;20033;-74
2022/04/29 06:08:00;;;;;;;21.23;14.32;;;15.30;99.90;;;;;;4995511;28;20029;-74
2022/04/29 06:10:37;;;;;;;24.63;14.48;;;15.30;99.90;;;;;;4995016;28;20040;-70
2022/04/29 06:13:05;;;;;;;19.80;12.70;;;15.40;99.90;;;;;;4995343;28;20061;-72
2022/04/29 06:15:35;;;;;;;26.63;13.60;;;15.20;99.90;;;;;;4994372;28;20026;-74
2022/04/29 06:18:16;;;;;;;22.23;14.07;;;15.30;99.90;;;;;;5012777;28;20038;-74
2022/04/29 06:20:42;;;;;;;20.13;14.45;;;15.20;99.90;;;;;;5012900;28;20049;-74
2022/04/29 06:23:31;;;;;;;22.73;13.93;;;15.30;99.90;;;;;;5004235;28;20040;-72
2022/04/29 06:25:59;;;;;;;18.58;13.13;;;15.50;99.90;;;;;;4995096;28;20036;-74
2022/04/29 06:28:32;;;;;;;21.58;15.02;;;15.70;99.90;;;;;;5012362;28;20396;-73
2022/04/29 06:30:59;;;;;;;24.23;15.02;;;15.70;99.90;;;;;;4994603;28;20034;-71
2022/04/29 06:33:31;;;;;;;22.92;15.02;;;15.70;99.90;;;;;;5022160;28;20091;-72
2022/04/29 06:35:58;;;;;;;23.80;14.65;;;15.60;99.90;;;;;;5014226;28;20116;-73
2022/04/29 06:38:24;;;;;;;23.02;13.85;;;15.60;99.90;;;;;;5003214;28;20125;-75
2022/04/29 06:40:57;;;;;;;20.90;14.45;;;15.50;99.90;;;;;;5012697;28;20092;-74
2022/04/29 06:43:32;;;;;;;23.23;12.63;;;15.50;99.90;;;;;;4994657;28;20077;-71
2022/04/29 06:46:33;;;;;;;20.02;14.05;;;15.50;99.90;;;;;;4932278;29;20126;-74
2022/04/29 06:49:22;;;;;;;18.00;12.80;;;15.60;99.90;;;;;;4922481;29;20528;-75
2022/04/29 06:52:07;;;;;;;21.70;13.60;;;15.80;99.90;;;;;;4932836;29;20087;-74
2022/04/29 06:54:37;;;;;;;19.35;13.52;;;16.00;99.90;;;;;;4915521;29;20138;-75
2022/04/29 06:57:11;;;;;;;22.13;13.77;;;16.10;99.90;;;;;;4932086;29;20027;-75
2022/04/29 06:59:36;;;;;;;20.92;14.10;;;16.20;99.90;;;;;;4931701;29;20036;-75
2022/04/29 07:02:04;;;;;;;19.17;12.48;;;16.40;99.90;;;;;;4932162;29;20031;-75
2022/04/29 07:04:32;;;;;;;22.13;13.98;;;16.80;99.90;;;;;;4931963;29;20545;-75
2022/04/29 07:06:58;;;;;;;19.88;12.38;;;16.80;99.90;;;;;;4931856;29;20039;-71
2022/04/29 07:09:24;;;;;;;18.58;11.95;;;16.90;99.90;;;;;;4931850;29;20095;-75
2022/04/29 07:12:10;;;;;;;19.95;13.00;;;17.00;99.90;;;;;;4912113;29;20040;-74
2022/04/29 07:14:52;;;;;;;19.58;11.90;;;17.10;99.90;;;;;;4912096;29;20581;-75
2022/04/29 07:17:20;;;;;;;19.02;11.90;;;17.30;99.90;;;;;;4896291;29;20491;-73
2022/04/29 07:19:50;;;;;;;18.10;11.70;;;17.60;99.90;;;;;;4907569;28;20568;-74
2022/04/29 07:22:17;;;;;;;16.85;10.63;;;17.50;99.90;;;;;;4971390;28;20065;-74
2022/04/29 07:24:45;;;;;;;17.30;11.30;;;17.40;99.90;;;;;;4972300;28;20121;-71
2022/04/29 07:27:13;;;;;;;19.42;12.25;;;17.20;99.90;;;;;;4973392;28;20081;-74
2022/04/29 07:29:40;;;;;;;21.42;11.60;;;17.30;99.90;;;;;;4973712;28;20146;-79
2022/04/29 07:32:12;;;;;;;16.25;9.23;;;17.30;99.90;;;;;;4973598;28;20057;-74
2022/04/29 07:43:48;;;;;;;16.52;11.07;;;17.20;99.90;;;;;;4973813;28;20591;-74
2022/04/29 07:46:14;;;;;;;14.55;9.25;;;17.10;99.90;;;;;;4973697;28;20059;-74
2022/04/29 07:49:04;;;;;;;14.80;9.88;;;17.40;99.90;;;;;;4982346;28;20109;-74
2022/04/29 07:51:30;;;;;;;22.02;11.48;;;17.90;99.90;;;;;;5011515;28;20391;-74
2022/04/29 07:53:56;;;;;;;16.88;11.00;;;18.10;99.90;;;;;;5010769;28;20034;-75
2022/04/29 07:56:22;;;;;;;16.90;10.40;;;18.10;99.90;;;;;;5010684;28;20026;-74
2022/04/29 07:58:50;;;;;;;14.00;8.90;;;18.30;99.90;;;;;;5010909;28;20087;-75
2022/04/29 08:01:16;;;;;;;16.42;10.65;;;18.30;99.90;;;;;;5010486;28;20034;-75
2022/04/29 08:03:44;;;;;;;16.15;9.55;;;18.30;99.90;;;;;;5010764;28;20022;-75
2022/04/29 08:06:14;;;;;;;15.55;9.63;;;18.30;99.90;;;;;;5011960;28;20030;-75
2022/04/29 08:08:40;;;;;;;15.45;8.73;;;17.90;99.90;;;;;;5010502;28;20091;-74
2022/04/29 08:11:10;;;;;;;15.77;9.57;;;18.10;99.90;;;;;;5010489;28;20099;-73
2022/04/29 08:13:59;;;;;;;15.98;9.88;;;18.00;99.90;;;;;;4998532;28;20136;-72
2022/04/29 08:16:50;;;;;;;16.80;9.38;;;18.10;99.90;;;;;;5011463;28;20089;-73
2022/04/29 08:19:37;;;;;;;15.00;9.75;;;18.40;99.90;;;;;;5010280;28;20122;-74
2022/04/29 08:22:11;;;;;;;12.68;8.88;;;18.00;99.90;;;;;;5013125;28;20037;-75
2022/04/29 08:24:37;;;;;;;16.10;8.88;;;18.00;99.90;;;;;;5014055;28;20096;-74
2022/04/29 08:27:03;;;;;;;13.68;8.50;;;18.20;99.90;;;;;;5015080;28;20472;-74
2022/04/29 08:29:29;;;;;;;16.15;9.35;;;18.00;99.90;;;;;;5011338;28;20383;-73
2022/04/29 08:31:55;;;;;;;15.38;9.23;;;18.30;99.90;;;;;;5014233;28;20026;-75
2022/04/29 08:34:21;;;;;;;13.10;8.45;;;18.80;99.90;;;;;;5014780;28;20033;-73
2022/04/29 08:36:48;;;;;;;13.75;8.90;;;18.70;97.90;;;;;;4996656;28;20033;-72
2022/04/29 08:39:14;;;;;;;15.77;7.35;;;18.70;99.90;;;;;;5013306;28;20033;-74
2022/04/29 08:41:41;;;;;;;15.60;8.75;;;18.90;99.90;;;;;;5012844;28;20023;-71
2022/04/29 08:44:12;;;;;;;14.70;9.63;;;18.90;99.90;;;;;;4999888;28;20025;-74
2022/04/29 08:46:48;;;;;;;15.07;8.63;;;18.80;99.90;;;;;;5007342;28;20416;-74
2022/04/29 08:49:35;;;;;;;13.45;8.05;;;18.60;96.50;;;;;;4986245;28;20041;-74
2022/04/29 08:52:04;;;;;;;15.48;9.23;;;18.70;99.90;;;;;;5007182;28;20010;-73
2022/04/29 09:00:05;;;;;;;11.70;7.22;;;19.50;98.90;;;;;;4982025;28;20034;-74
2022/04/29 09:02:39;;;;;;;12.48;7.07;;;19.00;93.60;;;;;;4977721;28;20018;-73
2022/04/29 09:05:10;;;;;;;9.13;6.13;;;19.40;96.50;;;;;;4975824;28;20058;-75
2022/04/29 09:07:59;;;;;;;9.05;4.75;;;19.50;99.10;;;;;;4975859;28;20035;-73
2022/04/29 09:10:34;;;;;;;8.73;5.00;;;19.30;93.70;;;;;;4975955;28;20031;-73
2022/04/29 09:13:14;;;;;;;7.57;5.05;;;19.30;93.80;;;;;;4980277;28;20056;-70
2022/04/29 09:15:50;;;;;;;8.93;4.38;;;19.50;92.70;;;;;;4994896;28;20041;-74
2022/04/29 09:18:29;;;;;;;10.80;6.00;;;19.90;93.60;;;;;;4995041;28;20519;-75
2022/04/29 09:20:56;;;;;;;10.40;5.53;;;20.00;94.60;;;;;;4994991;28;20291;-75
2022/04/29 09:23:29;;;;;;;9.10;5.63;;;19.40;90.70;;;;;;4994750;28;20019;-75
2022/04/29 09:26:38;;;;;;;11.60;5.45;;;19.20;93.30;;;;;;4994873;28;20050;-75
2022/04/29 09:29:41;;;;;;;8.75;4.97;;;19.50;88.50;;;;;;4915288;29;20050;-75
2022/04/29 09:32:08;;;;;;;11.25;6.05;;;19.00;90.30;;;;;;4914685;29;20080;-73
2022/04/29 09:35:03;;;;;;;9.05;5.88;;;18.90;88.20;;;;;;4896436;29;20077;-75
2022/04/29 09:37:32;;;;;;;10.52;6.22;;;19.30;88.20;;;;;;4896520;29;20043;-72
2022/04/29 09:40:05;;;;;;;10.30;5.78;;;19.50;93.00;;;;;;4895945;29;20045;-74
2022/04/29 09:42:42;;;;;;;8.35;5.13;;;19.60;95.60;;;;;;4896311;29;20041;-74
2022/04/29 09:45:17;;;;;;;8.98;4.97;;;19.50;90.60;;;;;;4903686;29;20224;-75
2022/04/29 09:47:43;;;;;;;9.10;5.53;;;19.50;88.80;;;;;;4915145;29;20036;-75
2022/04/29 09:50:17;;;;;;;9.27;6.50;;;19.70;94.20;;;;;;4923052;29;20036;-71
2022/04/29 09:52:45;;;;;;;9.73;5.55;;;19.80;92.70;;;;;;4896484;29;20049;-75
2022/04/29 09:55:14;;;;;;;9.82;6.13;;;19.60;88.00;;;;;;4896225;29;20036;-75
2022/04/29 09:57:59;;;;;;;9.07;5.53;;;19.30;86.60;;;;;;4895355;29;20110;-71
2022/04/29 10:00:26;;;;;;;9.00;5.72;;;19.20;90.90;;;;;;4895576;29;20056;-72
2022/04/29 10:02:52;;;;;;;9.18;6.18;;;19.00;83.60;;;;;;4910908;29;20510;-70
2022/04/29 10:05:22;;;;;;;11.52;6.25;;;19.10;88.30;;;;;;4927915;29;20043;-76
2022/04/29 10:08:15;;;;;;;7.68;4.47;;;19.30;86.30;;;;;;4948452;29;20090;-75
2022/04/29 10:10:41;;;;;;;10.75;6.50;;;19.80;79.50;;;;;;4953838;28;20106;-75
2022/04/29 10:13:09;;;;;;;10.32;5.38;;;19.80;86.90;;;;;;5012003;28;20056;-74
2022/04/29 10:15:41;;;;;;;9.43;5.05;;;19.70;85.30;;;;;;5000623;28;20098;-75
2022/04/29 10:22:03;;;;;;;7.60;4.95;;;19.50;82.50;;;;;;4903549;29;20060;-75
2022/04/29 10:24:30;;;;;;;12.68;6.90;;;19.20;81.80;;;;;;4903587;29;20047;-76
2022/04/29 10:26:57;;;;;;;12.85;6.95;;;18.90;86.30;;;;;;4904126;29;20033;-73
2022/04/29 10:29:26;;;;;;;11.10;6.57;;;18.80;86.30;;;;;;4903424;29;20120;-72
2022/04/29 10:32:07;;;;;;;13.60;7.20;;;18.60;87.80;;;;;;4903210;29;20033;-76
2022/04/29 10:34:35;;;;;;;10.57;6.32;;;18.80;89.60;;;;;;4898854;29;20044;-70
2022/04/29 10:37:13;;;;;;;10.70;6.20;;;18.60;91.20;;;;;;4871732;29;20029;-73
2022/04/29 10:39:42;;;;;;;12.63;6.45;;;18.40;90.70;;;;;;4885678;29;20142;-73
2022/04/29 10:42:09;;;;;;;10.45;6.45;;;18.40;90.60;;;;;;4893355;29;20079;-73
2022/04/29 10:45:01;;;;;;;11.35;5.80;;;18.40;92.90;;;;;;4892646;29;20041;-74
2022/04/29 10:47:38;;;;;;;11.45;5.95;;;18.30;90.60;;;;;;4891610;29;20056;-74
2022/04/29 10:50:31;;;;;;;15.63;5.53;;;18.10;88.10;;;;;;4888733;29;20048;-74
2022/04/29 10:53:22;;;;;;;9.60;5.40;;;18.10;86.60;;;;;;4874567;29;20037;-74
2022/04/29 10:56:27;;;;;;;10.15;5.07;;;18.10;86.60;;;;;;4896567;29;20045;-74
2022/04/29 10:59:12;;;;;;;12.95;6.13;;;18.00;86.00;;;;;;4938557;29;20056;-74
2022/04/29 11:01:48;;;;;;;9.65;5.80;;;18.00;84.10;;;;;;4930780;29;20051;-71
2022/04/29 11:04:17;;;;;;;9.70;5.35;;;18.10;83.60;;;;;;4934321;29;20032;-69
2022/04/29 11:06:46;;;;;;;8.40;5.15;;;18.20;82.90;;;;;;4931091;28;20095;-74
2022/04/29 11:09:25;;;;;;;7.32;4.35;;;18.40;82.10;;;;;;4930895;29;20451;-74
2022/04/29 11:11:52;;;;;;;10.82;4.38;;;18.30;79.40;;;;;;4931335;29;20051;-73
2022/04/29 11:15:16;;;;;;;6.05;4.00;;;18.40;78.90;;;;;;4917690;29;20530;-73
2022/04/29 11:18:23;;;;;;;5.10;3.42;;;18.40;76.00;;;;;;4897458;29;20236;-75
2022/04/29 11:20:59;;;;;;;5.38;3.65;;;18.40;75.20;;;;;;4917105;29;20044;-73
2022/04/29 11:26:17;;;;;;;8.60;4.32;;;18.70;75.20;;;;;;4911316;29;20047;-73
2022/04/29 11:28:55;;;;;;;9.65;5.30;;;18.60;74.30;;;;;;4902042;29;20084;-70
2022/04/29 11:31:35;;;;;;;10.75;4.22;;;18.90;77.40;;;;;;4933018;29;20046;-74
2022/04/29 11:34:11;;;;;;;11.25;4.82;;;19.00;76.70;;;;;;4934318;29;20447;-74
2022/04/29 11:36:39;;;;;;;6.82;3.80;;;19.10;78.20;;;;;;4937007;29;20031;-75
2022/04/29 11:39:16;;;;;;;9.85;3.92;;;19.30;78.90;;;;;;4931990;29;20036;-74
2022/04/29 11:41:59;;;;;;;8.57;3.95;;;19.30;75.20;;;;;;4935968;29;20028;-74
2022/04/29 11:44:35;;;;;;;14.70;3.72;;;19.40;73.20;;;;;;4928184;29;20024;-69
2022/04/29 11:47:02;;;;;;;9.30;4.03;;;19.30;71.10;;;;;;4930730;29;20120;-73
2022/04/29 11:49:32;;;;;;;7.32;4.15;;;19.30;74.50;;;;;;4930743;29;20023;-74
2022/04/29 11:52:39;;;;;;;4.95;3.40;;;19.30;73.00;;;;;;4967192;28;20411;-70
2022/04/29 11:55:13;;;;;;;5.80;3.78;;;19.30;73.70;;;;;;4969806;28;20078;-74
2022/04/29 11:57:47;;;;;;;8.63;4.65;;;19.20;75.50;;;;;;4974777;28;20392;-74
2022/04/29 12:00:25;;;;;;;10.55;5.28;;;19.10;74.80;;;;;;4974257;28;20043;-70
2022/04/29 12:02:52;;;;;;;9.82;5.68;;;19.10;76.70;;;;;;4976047;28;20059;-74
2022/04/29 12:05:23;;;;;;;8.90;5.30;;;19.10;77.50;;;;;;4956786;28;20023;-73
2022/04/29 12:07:52;;;;;;;9.77;4.85;;;19.20;75.70;;;;;;4970640;28;20432;-70
2022/04/29 12:10:31;;;;;;;6.97;4.65;;;19.50;78.70;;;;;;4975130;28;20031;-73
2022/04/29 12:12:59;;;;;;;8.38;4.85;;;19.70;75.60;;;;;;4972609;28;20042;-73
2022/04/29 12:15:35;;;;;;;9.80;4.80;;;19.70;77.00;;;;;;4973038;28;20496;-67
2022/04/29 12:18:03;;;;;;;8.63;4.55;;;19.30;75.10;;;;;;4973467;28;20031;-73
2022/04/29 12:20:30;;;;;;;8.82;4.28;;;19.20;73.10;;;;;;4973377;28;20469;-74
2022/04/29 12:23:15;;;;;;;9.45;5.03;;;19.10;74.50;;;;;;4956844;28;20485;-74
2022/04/29 12:25:45;;;;;;;8.48;4.70;;;19.20;73.20;;;;;;4998276;28;20073;-72
2022/04/29 12:28:16;;;;;;;8.70;5.10;;;19.30;72.00;;;;;;4999342;28;20475;-74
2022/04/29 12:36:58;;;;;;;9.63;5.10;;;19.50;74.90;;;;;;5012602;28;20038;-71
2022/04/29 12:39:39;;;;;;;8.90;5.20;;;19.20;71.10;;;;;;4993864;28;20026;-74
2022/04/29 12:42:13;;;;;;;10.60;5.88;;;19.30;73.30;;;;;;4993492;28;20018;-72
2022/04/29 12:45:06;;;;;;;12.85;6.32;;;19.50;76.50;;;;;;5003043;28;20034;-73
2022/04/29 12:48:02;;;;;;;15.82;5.95;;;19.30;76.60;;;;;;5015741;28;20482;-72
2022/04/29 12:50:36;;;;;;;10.15;5.10;;;19.10;77.90;;;;;;4992621;28;20030;-72
2022/04/29 12:53:07;;;;;;;9.50;5.10;;;19.00;75.60;;;;;;5013820;28;20058;-73
2022/04/29 12:55:36;;;;;;;9.25;5.57;;;18.90;74.90;;;;;;5014826;28;20052;-73
2022/04/29 12:58:06;;;;;;;10.77;5.20;;;18.90;74.90;;;;;;5014798;28;20022;-73
2022/04/29 13:00:34;;;;;;;7.15;4.47;;;18.70;73.00;;;;;;5014338;28;20038;-74
2022/04/29 13:03:16;;;;;;;10.30;5.20;;;18.80;75.50;;;;;;5014132;28;20072;-74
2022/04/29 13:05:43;;;;;;;12.05;5.82;;;18.70;75.00;;;;;;4996189;28;20033;-74
2022/04/29 13:08:10;;;;;;;10.80;5.80;;;19.00;74.30;;;;;;5013700;28;20022;-73
2022/04/29 13:10:45;;;;;;;8.65;4.97;;;19.00;77.10;;;;;;5004421;28;20381;-71
2022/04/29 13:13:11;;;;;;;12.65;6.22;;;19.10;73.10;;;;;;4993111;28;20076;-73
2022/04/29 13:15:41;;;;;;;9.20;5.22;;;19.00;75.50;;;;;;5011131;28;20025;-72
2022/04/29 13:18:08;;;;;;;9.00;5.45;;;18.90;73.50;;;;;;4996107;28;20036;-73
2022/04/29 13:20:34;;;;;;;7.43;4.40;;;19.00;75.00;;;;;;5013553;28;20018;-73
2022/04/29 13:23:01;;;;;;;9.05;5.15;;;19.00;72.50;;;;;;5012754;28;20545;-69
2022/04/29 13:25:27;;;;;;;9.65;5.82;;;19.10;74.20;;;;;;4996789;28;20029;-74
2022/04/29 13:27:54;;;;;;;7.15;4.82;;;19.20;75.30;;;;;;5009400;28;20056;-72
2022/04/29 13:30:20;;;;;;;10.43;5.00;;;19.20;72.80;;;;;;5015412;28;20022;-69
2022/04/29 13:32:46;;;;;;;8.27;4.00;;;19.40;74.30;;;;;;5000422;28;20492;-68
2022/04/29 13:35:13;;;;;;;7.07;3.85;;;19.60;75.90;;;;;;5002814;28;20045;-73
2022/04/29 13:37:39;;;;;;;8.02;4.18;;;19.20;73.10;;;;;;4998224;28;20536;-74